Time;durP1;ratioP1;P1;durP2;ratioP2;P2;SDS_P1;SDS_P2;PMS_P1;PMS_P2;Temp;Humidity;BMP_temperature;BMP_pressure;BME280_temperature;BME280_humidity;BME280_pressure;Samples;Min_cycle;Max_cycle;Signal;HPM_P1;HPM_P2
2022/01/21 00:00:27;;;;;;;11.40;3.15;;;1.00;99.90;;;;;;5136514;27;20045;-75
2022/01/21 00:02:53;;;;;;;12.65;3.22;;;1.00;99.90;;;;;;5134165;27;20043;-75
2022/01/21 00:05:21;;;;;;;12.75;3.15;;;1.00;99.90;;;;;;5136466;27;20043;-75
2022/01/21 00:07:47;;;;;;;15.77;3.10;;;1.00;99.90;;;;;;5134363;27;20138;-74
2022/01/21 00:10:13;;;;;;;10.18;2.85;;;1.00;99.90;;;;;;5134632;27;20047;-75
2022/01/21 00:12:39;;;;;;;11.23;3.25;;;1.00;99.90;;;;;;5114681;27;20078;-74
2022/01/21 00:15:07;;;;;;;13.65;3.13;;;1.00;99.90;;;;;;5136374;27;20083;-75
2022/01/21 00:17:33;;;;;;;14.75;3.08;;;1.00;99.90;;;;;;5134598;27;20043;-75
2022/01/21 00:30:08;;;;;;;13.88;3.25;;;1.00;99.90;;;;;;5134686;27;20533;-75
2022/01/21 00:30:57;;;;;;;15.80;3.67;;;1.00;99.90;;;;;;5115805;27;20050;-76
2022/01/21 00:33:23;;;;;;;15.63;3.33;;;1.00;99.90;;;;;;5117347;27;20035;-75
2022/01/21 00:35:48;;;;;;;17.40;4.18;;;1.00;99.90;;;;;;5116141;27;20119;-75
2022/01/21 00:38:14;;;;;;;15.80;3.90;;;1.00;99.90;;;;;;5119501;27;20039;-75
2022/01/21 00:40:40;;;;;;;14.05;4.03;;;1.00;99.90;;;;;;5135354;27;20099;-72
2022/01/21 00:45:35;;;;;;;16.17;4.00;;;1.00;99.90;;;;;;5135771;27;20047;-75
2022/01/21 00:48:00;;;;;;;12.52;3.90;;;1.00;99.90;;;;;;5131257;27;20043;-75
2022/01/21 00:50:27;;;;;;;14.70;3.80;;;1.10;99.90;;;;;;5115233;28;20048;-75
2022/01/21 00:52:53;;;;;;;15.93;3.65;;;1.00;99.90;;;;;;5114669;27;20054;-76
2022/01/21 00:55:18;;;;;;;17.80;3.75;;;1.00;99.90;;;;;;5133469;27;20043;-75
2022/01/21 00:57:44;;;;;;;17.17;4.43;;;1.00;99.90;;;;;;5168526;27;20471;-75
2022/01/21 01:00:11;;;;;;;14.35;4.13;;;1.00;99.90;;;;;;5132695;27;20039;-76
2022/01/21 01:02:38;;;;;;;20.35;4.07;;;1.00;99.90;;;;;;5117209;27;20054;-76
2022/01/21 01:05:05;;;;;;;19.48;4.75;;;1.00;99.90;;;;;;5128056;27;20380;-76
2022/01/21 01:07:31;;;;;;;14.25;3.55;;;1.10;99.90;;;;;;5135418;27;20050;-75
2022/01/21 01:09:58;;;;;;;18.60;4.15;;;1.10;99.90;;;;;;5132760;27;20053;-75
2022/01/21 01:20:37;;;;;;;14.32;3.88;;;1.30;99.90;;;;;;5125588;27;20560;-74
2022/01/21 01:23:20;;;;;;;18.33;3.97;;;1.30;99.90;;;;;;5113638;28;20138;-75
2022/01/21 01:28:30;;;;;;;13.35;3.33;;;1.40;99.90;;;;;;5134541;27;20054;-75
2022/01/21 01:30:56;;;;;;;13.30;3.28;;;1.40;99.90;;;;;;5114712;27;20123;-75
2022/01/21 01:33:24;;;;;;;12.95;3.33;;;1.40;99.90;;;;;;5114275;28;20039;-75
2022/01/21 01:35:51;;;;;;;13.80;3.00;;;1.40;99.90;;;;;;5130981;27;20092;-75
2022/01/21 01:39:19;;;;;;;16.80;3.78;;;1.40;99.90;;;;;;5134686;27;20051;-75
2022/01/21 01:41:15;;;;;;;12.45;2.88;;;1.50;99.90;;;;;;5119862;27;20047;-75
2022/01/21 01:51:56;;;;;;;13.77;3.55;;;1.50;99.90;;;;;;5133200;27;20488;-74
2022/01/21 01:54:22;;;;;;;13.55;3.10;;;1.60;99.90;;;;;;5131675;27;20066;-74
2022/01/21 01:56:51;;;;;;;14.88;3.05;;;1.60;99.90;;;;;;5132050;27;20434;-71
2022/01/21 01:59:17;;;;;;;13.90;3.15;;;1.60;99.90;;;;;;5134646;27;20039;-75
2022/01/21 02:01:50;;;;;;;13.32;3.25;;;1.60;99.90;;;;;;5116089;27;20389;-74
2022/01/21 02:04:16;;;;;;;10.68;3.10;;;1.60;99.90;;;;;;5113604;28;20476;-74
2022/01/21 02:06:42;;;;;;;14.43;2.70;;;1.60;99.90;;;;;;5115682;27;20045;-75
2022/01/21 02:09:08;;;;;;;11.00;2.70;;;1.60;99.90;;;;;;5133544;27;20190;-75
2022/01/21 02:11:33;;;;;;;12.80;2.60;;;1.60;99.90;;;;;;5116905;27;20046;-75
2022/01/21 02:14:01;;;;;;;11.23;2.78;;;1.60;99.90;;;;;;5112945;28;20051;-74
2022/01/21 02:21:41;;;;;;;9.90;2.80;;;1.60;99.90;;;;;;5117032;27;20097;-75
2022/01/21 02:24:13;;;;;;;9.25;2.50;;;1.70;99.90;;;;;;5111830;28;20073;-74
2022/01/21 02:26:39;;;;;;;8.85;2.40;;;1.80;99.90;;;;;;5129784;27;20043;-75
2022/01/21 02:29:06;;;;;;;10.68;2.58;;;1.80;99.90;;;;;;5131534;27;20068;-74
2022/01/21 02:31:34;;;;;;;11.52;2.72;;;1.80;99.90;;;;;;5115043;27;20044;-74
2022/01/21 02:34:00;;;;;;;7.85;2.20;;;1.80;99.90;;;;;;5112663;28;20051;-74
2022/01/21 02:36:27;;;;;;;11.82;2.45;;;1.80;99.90;;;;;;5113626;27;20052;-74
2022/01/21 02:38:53;;;;;;;8.00;2.85;;;1.70;99.90;;;;;;5113905;27;20035;-71
2022/01/21 02:41:19;;;;;;;11.77;2.83;;;1.70;99.90;;;;;;5127709;27;20043;-74
2022/01/21 02:43:45;;;;;;;11.75;2.67;;;1.70;99.90;;;;;;5133630;27;20045;-75
2022/01/21 02:46:11;;;;;;;6.85;2.17;;;1.70;99.90;;;;;;5119283;28;20040;-74
2022/01/21 02:48:37;;;;;;;7.60;2.10;;;1.70;99.90;;;;;;5112955;28;20062;-74
2022/01/21 02:51:06;;;;;;;12.23;2.85;;;1.70;99.90;;;;;;5125206;27;20047;-74
2022/01/21 02:54:16;;;;;;;8.30;2.15;;;1.80;99.90;;;;;;5133759;27;20411;-74
2022/01/21 02:56:23;;;;;;;;;;;1.70;99.90;;;;;;5126429;27;20047;-75
2022/01/21 02:58:49;;;;;;;12.60;2.85;;;1.60;99.90;;;;;;5133513;28;20018;-75
2022/01/21 03:01:17;;;;;;;9.05;2.88;;;1.60;99.90;;;;;;5118070;27;20046;-75
2022/01/21 03:03:44;;;;;;;8.18;2.58;;;1.60;99.90;;;;;;5112972;28;20047;-75
2022/01/21 03:06:10;;;;;;;9.43;2.25;;;1.60;99.90;;;;;;5113705;28;20374;-74
2022/01/21 03:08:36;;;;;;;8.73;1.98;;;1.60;99.90;;;;;;5112983;28;20050;-74
2022/01/21 03:11:02;;;;;;;8.57;2.55;;;1.70;99.90;;;;;;5126047;28;20500;-74
2022/01/21 03:13:28;;;;;;;9.23;2.38;;;1.70;99.90;;;;;;5133524;27;20043;-74
2022/01/21 03:15:54;;;;;;;8.85;2.33;;;1.70;99.90;;;;;;5121227;27;20531;-74
2022/01/21 03:18:21;;;;;;;6.88;1.60;;;1.70;99.90;;;;;;5113208;28;20426;-74
2022/01/21 03:20:47;;;;;;;9.68;1.70;;;1.70;99.90;;;;;;5118968;28;20043;-75
2022/01/21 03:23:16;;;;;;;6.80;1.67;;;1.70;99.90;;;;;;5130628;27;20039;-74
2022/01/21 03:25:44;;;;;;;7.78;2.10;;;1.70;99.90;;;;;;5132839;27;20408;-74
2022/01/21 03:28:11;;;;;;;7.55;1.80;;;1.70;99.90;;;;;;5130911;27;20134;-74
2022/01/21 03:30:38;;;;;;;7.15;1.90;;;1.70;99.90;;;;;;5129564;27;20075;-74
2022/01/21 03:33:03;;;;;;;9.35;2.15;;;1.70;99.90;;;;;;5132616;27;20050;-74
2022/01/21 03:35:29;;;;;;;9.30;2.22;;;1.70;99.90;;;;;;5126303;28;20039;-75
2022/01/21 03:37:55;;;;;;;9.23;2.17;;;1.70;99.90;;;;;;5112243;28;20484;-74
2022/01/21 03:40:21;;;;;;;4.63;1.52;;;1.60;99.90;;;;;;5112053;28;20050;-75
2022/01/21 03:42:47;;;;;;;9.05;2.00;;;1.60;99.90;;;;;;5113331;28;20122;-75
2022/01/21 03:45:14;;;;;;;8.48;1.92;;;1.70;99.90;;;;;;5115160;28;20062;-74
2022/01/21 03:47:40;;;;;;;6.07;1.90;;;1.70;99.90;;;;;;5134716;27;20043;-75
2022/01/21 03:50:23;;;;;;;12.55;2.10;;;1.70;99.90;;;;;;5134648;27;20051;-74
2022/01/21 03:52:51;;;;;;;6.53;1.85;;;1.70;99.90;;;;;;5135168;27;20039;-75
2022/01/21 03:55:17;;;;;;;7.25;1.70;;;1.70;99.90;;;;;;5132446;27;20043;-74
2022/01/21 03:57:43;;;;;;;5.93;1.80;;;1.70;99.90;;;;;;5116311;28;20156;-75
2022/01/21 04:00:12;;;;;;;7.55;1.85;;;1.70;99.90;;;;;;5117090;27;20082;-74
2022/01/21 04:02:38;;;;;;;11.35;1.80;;;1.70;99.90;;;;;;5119795;27;20521;-74
2022/01/21 04:05:04;;;;;;;10.38;1.90;;;1.70;99.90;;;;;;5135240;27;20043;-71
2022/01/21 04:07:29;;;;;;;7.78;1.88;;;1.70;99.90;;;;;;5136487;27;20539;-74
2022/01/21 04:09:55;;;;;;;10.07;2.45;;;1.70;99.90;;;;;;5135223;27;20131;-75
2022/01/21 04:12:21;;;;;;;10.82;2.00;;;1.70;99.90;;;;;;5133942;27;20039;-74
2022/01/21 04:14:46;;;;;;;10.60;2.00;;;1.70;99.90;;;;;;5134673;27;20126;-75
2022/01/21 04:17:12;;;;;;;9.35;1.70;;;1.80;99.90;;;;;;5133929;27;20043;-74
2022/01/21 04:19:39;;;;;;;7.45;1.83;;;1.80;99.90;;;;;;5117839;27;20118;-75
2022/01/21 04:22:05;;;;;;;11.18;2.47;;;1.80;99.90;;;;;;5134189;27;20392;-70
2022/01/21 04:24:31;;;;;;;6.57;1.70;;;1.80;99.90;;;;;;5134084;27;20047;-75
2022/01/21 04:26:56;;;;;;;8.75;1.90;;;1.80;99.90;;;;;;5120412;27;20564;-74
2022/01/21 04:29:22;;;;;;;10.30;2.72;;;1.80;99.90;;;;;;5113681;28;20048;-74
2022/01/21 04:31:48;;;;;;;6.97;2.00;;;1.80;99.90;;;;;;5115646;27;20531;-75
2022/01/21 04:34:13;;;;;;;8.38;1.90;;;1.80;99.90;;;;;;5116002;27;20067;-74
2022/01/21 04:36:39;;;;;;;7.03;1.95;;;1.80;99.90;;;;;;5107463;27;20134;-75
2022/01/21 04:39:07;;;;;;;7.07;1.85;;;1.80;99.90;;;;;;5135987;27;20089;-73
2022/01/21 04:49:40;;;;;;;9.77;2.00;;;1.70;99.90;;;;;;5114807;28;20056;-74
2022/01/21 04:52:06;;;;;;;8.02;2.10;;;1.60;99.90;;;;;;5118228;27;20051;-75
2022/01/21 04:54:34;;;;;;;8.07;1.88;;;1.60;99.90;;;;;;5113531;28;20138;-75
2022/01/21 04:57:01;;;;;;;10.38;2.65;;;1.60;99.90;;;;;;5126671;27;20077;-74
2022/01/21 04:59:27;;;;;;;7.53;2.08;;;1.50;99.90;;;;;;5134105;27;20108;-74
2022/01/21 05:01:53;;;;;;;8.55;2.00;;;1.50;99.90;;;;;;5115746;27;20042;-74
2022/01/21 05:04:20;;;;;;;9.82;2.35;;;1.50;99.90;;;;;;5133863;27;20086;-74
2022/01/21 05:06:48;;;;;;;12.13;1.83;;;1.50;99.90;;;;;;5129300;27;20075;-75
2022/01/21 05:09:16;;;;;;;11.30;2.17;;;1.50;99.90;;;;;;5117349;27;20048;-75
2022/01/21 05:11:43;;;;;;;5.80;1.70;;;1.50;99.90;;;;;;5135460;27;20400;-75
2022/01/21 05:14:19;;;;;;;8.07;1.95;;;1.50;99.90;;;;;;5132305;27;20044;-75
2022/01/21 05:16:47;;;;;;;15.02;2.30;;;1.50;99.90;;;;;;5133554;27;20059;-75
2022/01/21 05:19:15;;;;;;;10.45;2.30;;;1.60;99.90;;;;;;5131446;27;20074;-74
2022/01/21 05:21:49;;;;;;;9.60;2.40;;;1.60;99.90;;;;;;5118334;27;20503;-78
2022/01/21 05:24:16;;;;;;;10.35;2.67;;;1.60;99.90;;;;;;5130948;27;20051;-74
2022/01/21 05:26:52;;;;;;;12.35;2.80;;;1.60;99.90;;;;;;5135199;27;20090;-75
2022/01/21 05:29:19;;;;;;;11.45;2.42;;;1.60;99.90;;;;;;5132356;27;20047;-74
2022/01/21 05:31:45;;;;;;;10.40;2.60;;;1.60;99.90;;;;;;5120925;27;20073;-75
2022/01/21 05:34:11;;;;;;;10.80;2.65;;;1.60;99.90;;;;;;5135048;27;20054;-73
2022/01/21 05:36:40;;;;;;;11.35;2.70;;;1.60;99.90;;;;;;5134723;27;20043;-75
2022/01/21 05:39:07;;;;;;;10.00;2.33;;;1.60;99.90;;;;;;5134809;27;20151;-75
2022/01/21 05:41:32;;;;;;;13.38;3.58;;;1.50;99.90;;;;;;5133857;27;20078;-75
2022/01/21 05:44:06;;;;;;;10.40;2.30;;;1.50;99.90;;;;;;5114124;28;20127;-75
2022/01/21 05:49:04;;;;;;;12.00;2.70;;;1.40;99.90;;;;;;5114094;28;20051;-75
2022/01/21 05:51:30;;;;;;;9.95;2.50;;;1.40;99.90;;;;;;5113477;28;20130;-75
2022/01/21 05:53:56;;;;;;;9.50;2.67;;;1.40;99.90;;;;;;5114717;28;20185;-75
2022/01/21 05:56:24;;;;;;;8.10;2.40;;;1.30;99.90;;;;;;5113406;27;20055;-74
2022/01/21 05:58:51;;;;;;;10.35;2.25;;;1.30;99.90;;;;;;5114013;28;20047;-75
2022/01/21 06:01:17;;;;;;;9.57;2.40;;;1.30;99.90;;;;;;5113416;28;20499;-71
2022/01/21 06:03:43;;;;;;;13.60;2.40;;;1.30;99.90;;;;;;5129983;27;20087;-75
2022/01/21 06:06:09;;;;;;;9.63;2.05;;;1.30;99.90;;;;;;5129635;27;20054;-75
2022/01/21 06:08:37;;;;;;;10.00;2.20;;;1.30;99.90;;;;;;5131071;27;20559;-75
2022/01/21 06:11:03;;;;;;;6.65;2.00;;;1.30;99.90;;;;;;5133238;27;20091;-75
2022/01/21 06:13:30;;;;;;;10.43;2.92;;;1.30;99.90;;;;;;5133671;27;20043;-75
2022/01/21 06:15:56;;;;;;;12.45;2.55;;;1.40;99.90;;;;;;5134097;27;20043;-75
2022/01/21 06:18:22;;;;;;;6.13;2.05;;;1.40;99.90;;;;;;5133650;27;20046;-75
2022/01/21 06:20:48;;;;;;;9.15;1.90;;;1.40;99.90;;;;;;5096498;28;20058;-76
2022/01/21 06:23:14;;;;;;;10.13;2.42;;;1.40;99.90;;;;;;5112638;28;20115;-75
2022/01/21 06:25:39;;;;;;;10.98;2.22;;;1.40;99.90;;;;;;5128860;27;20531;-76
2022/01/21 06:28:05;;;;;;;10.45;2.15;;;1.40;99.90;;;;;;5113290;28;20044;-76
2022/01/21 06:30:31;;;;;;;9.23;2.10;;;1.40;99.90;;;;;;5111504;28;20051;-76
2022/01/21 06:32:57;;;;;;;12.80;2.40;;;1.30;99.90;;;;;;5114337;28;20500;-76
2022/01/21 06:35:23;;;;;;;10.02;2.58;;;1.40;99.90;;;;;;5111582;28;20051;-76
2022/01/21 06:37:49;;;;;;;9.23;2.42;;;1.30;99.90;;;;;;5113327;27;20046;-76
2022/01/21 06:40:17;;;;;;;10.50;2.47;;;1.30;99.90;;;;;;5113283;28;20475;-76
2022/01/21 06:42:43;;;;;;;11.02;2.20;;;1.30;99.90;;;;;;5112592;28;20044;-76
2022/01/21 06:45:09;;;;;;;13.10;2.50;;;1.40;99.90;;;;;;5113499;28;20128;-76
2022/01/21 06:47:35;;;;;;;9.75;2.30;;;1.40;99.90;;;;;;5112545;28;20048;-76
2022/01/21 06:50:01;;;;;;;11.57;2.03;;;1.40;99.90;;;;;;5113284;28;20101;-76
2022/01/21 06:52:28;;;;;;;13.65;2.65;;;1.40;99.90;;;;;;5112472;28;20044;-75
2022/01/21 06:54:54;;;;;;;9.63;2.30;;;1.40;99.90;;;;;;5113010;28;20036;-76
2022/01/21 06:57:20;;;;;;;8.88;2.30;;;1.40;99.90;;;;;;5122353;28;20043;-76
2022/01/21 06:59:47;;;;;;;9.52;2.25;;;1.40;99.90;;;;;;5131817;28;20377;-76
2022/01/21 07:02:13;;;;;;;9.25;2.40;;;1.40;99.90;;;;;;5131749;27;20047;-75
2022/01/21 07:04:39;;;;;;;12.20;2.75;;;1.40;99.90;;;;;;5133080;28;20047;-75
2022/01/21 07:07:05;;;;;;;11.10;2.15;;;1.50;99.90;;;;;;5132646;28;20047;-76
2022/01/21 07:09:31;;;;;;;7.20;2.28;;;1.50;99.90;;;;;;5133063;27;20047;-76
2022/01/21 07:11:56;;;;;;;10.23;2.30;;;1.50;99.90;;;;;;5131748;27;20036;-76
2022/01/21 07:14:22;;;;;;;12.45;2.22;;;1.50;99.90;;;;;;5133289;28;20055;-76
2022/01/21 07:16:48;;;;;;;10.57;1.90;;;1.50;99.90;;;;;;5132923;27;20099;-76
2022/01/21 07:19:15;;;;;;;10.45;2.55;;;1.50;99.90;;;;;;5132470;28;20050;-76
2022/01/21 07:21:41;;;;;;;11.25;2.60;;;1.50;99.90;;;;;;5133047;27;20043;-76
2022/01/21 07:24:07;;;;;;;9.32;2.22;;;1.50;99.90;;;;;;5135603;27;20043;-76
2022/01/21 07:26:33;;;;;;;6.35;2.08;;;1.50;99.90;;;;;;5136880;27;20050;-76
2022/01/21 07:28:59;;;;;;;7.75;2.22;;;1.50;99.90;;;;;;5137293;27;20046;-76
2022/01/21 07:31:26;;;;;;;9.38;2.25;;;1.50;99.90;;;;;;5137089;27;20139;-71
2022/01/21 07:33:52;;;;;;;10.77;2.58;;;1.50;99.90;;;;;;5135336;27;20047;-76
2022/01/21 07:36:18;;;;;;;10.75;2.53;;;1.50;99.90;;;;;;5137229;27;20107;-77
2022/01/21 07:38:44;;;;;;;11.73;2.78;;;1.50;99.90;;;;;;5135348;27;20450;-76
2022/01/21 07:41:09;;;;;;;11.05;2.17;;;1.50;99.90;;;;;;5137142;27;20039;-77
2022/01/21 07:43:35;;;;;;;8.60;1.83;;;1.50;99.90;;;;;;5134983;27;20043;-76
2022/01/21 07:46:01;;;;;;;10.13;2.03;;;1.50;99.90;;;;;;5099255;28;20074;-77
2022/01/21 07:48:27;;;;;;;14.50;2.80;;;1.50;99.90;;;;;;5116260;28;20056;-71
2022/01/21 07:50:53;;;;;;;9.13;2.25;;;1.50;99.90;;;;;;5116284;28;20059;-77
2022/01/21 07:53:19;;;;;;;7.28;2.30;;;1.50;99.90;;;;;;5116518;28;20036;-77
2022/01/21 07:55:45;;;;;;;8.48;1.83;;;1.50;99.90;;;;;;5131270;27;20110;-76
2022/01/21 07:58:14;;;;;;;10.10;2.30;;;1.50;99.90;;;;;;5134010;27;20087;-76
2022/01/21 08:00:40;;;;;;;10.65;2.45;;;1.60;99.90;;;;;;5136381;27;20050;-76
2022/01/21 08:03:05;;;;;;;8.98;2.63;;;1.60;99.90;;;;;;5135868;27;20047;-76
2022/01/21 08:05:34;;;;;;;7.72;2.50;;;1.60;99.90;;;;;;5135292;27;20482;-71
2022/01/21 08:08:00;;;;;;;9.57;2.10;;;1.60;99.90;;;;;;5135080;27;20399;-76
2022/01/21 08:10:26;;;;;;;8.13;2.25;;;1.60;99.90;;;;;;5135558;27;20053;-76
2022/01/21 08:12:52;;;;;;;9.15;2.67;;;1.70;99.90;;;;;;5135838;27;20039;-76
2022/01/21 08:15:19;;;;;;;12.65;2.65;;;1.70;99.90;;;;;;5136452;27;20047;-76
2022/01/21 08:17:45;;;;;;;7.45;2.50;;;1.70;99.90;;;;;;5135821;27;20096;-89
2022/01/21 08:20:11;;;;;;;9.82;2.47;;;1.70;99.90;;;;;;5135299;27;20429;-77
2022/01/21 08:22:37;;;;;;;10.07;2.90;;;1.70;99.90;;;;;;5135607;27;20043;-78
2022/01/21 08:25:04;;;;;;;9.77;2.70;;;1.70;99.90;;;;;;5128495;27;20468;-79
2022/01/21 08:27:30;;;;;;;8.55;2.78;;;1.70;99.90;;;;;;5136207;27;20082;-79
2022/01/21 08:29:56;;;;;;;11.20;3.28;;;1.70;99.90;;;;;;5134474;27;20092;-80
2022/01/21 08:32:22;;;;;;;8.73;3.03;;;1.70;99.90;;;;;;5136254;27;20059;-80
2022/01/21 08:34:49;;;;;;;8.48;2.90;;;1.70;99.90;;;;;;5130829;27;20071;-80
2022/01/21 08:37:16;;;;;;;12.25;2.67;;;1.80;99.90;;;;;;5115426;28;20055;-80
2022/01/21 08:39:43;;;;;;;10.93;2.83;;;1.80;99.90;;;;;;5114659;28;20043;-79
2022/01/21 08:42:10;;;;;;;10.68;2.97;;;1.80;99.90;;;;;;5115409;28;20040;-80
2022/01/21 08:44:35;;;;;;;10.85;3.03;;;1.90;99.90;;;;;;5114675;28;20043;-76
2022/01/21 08:47:02;;;;;;;12.35;3.35;;;1.90;99.90;;;;;;5115005;28;20477;-79
2022/01/21 08:49:27;;;;;;;7.30;3.42;;;2.00;99.90;;;;;;5115144;28;20056;-79
2022/01/21 08:51:57;;;;;;;11.77;2.97;;;2.00;99.90;;;;;;5132856;27;20243;-79
2022/01/21 08:54:24;;;;;;;12.57;3.42;;;2.10;99.90;;;;;;5134667;27;20055;-80
2022/01/21 08:56:52;;;;;;;10.90;2.88;;;2.00;99.90;;;;;;5134782;27;20039;-79
2022/01/21 08:59:19;;;;;;;8.45;2.70;;;2.10;99.90;;;;;;5134400;27;20392;-79
2022/01/21 09:01:46;;;;;;;14.85;3.15;;;2.10;99.90;;;;;;5128318;27;20095;-78
2022/01/21 09:04:12;;;;;;;11.52;2.88;;;2.10;99.90;;;;;;5128005;27;20036;-79
2022/01/21 09:06:38;;;;;;;7.93;2.75;;;2.20;99.90;;;;;;5130652;27;20050;-79
2022/01/21 09:09:04;;;;;;;8.63;2.75;;;2.30;99.90;;;;;;5131883;27;20039;-79
2022/01/21 09:11:30;;;;;;;10.50;3.08;;;2.30;99.90;;;;;;5131311;27;20080;-79
2022/01/21 09:13:57;;;;;;;10.75;2.95;;;2.40;99.90;;;;;;5132030;27;20307;-78
2022/01/21 09:16:23;;;;;;;10.48;2.97;;;2.60;99.90;;;;;;5131033;27;20051;-78
2022/01/21 09:18:52;;;;;;;10.52;2.80;;;2.70;99.90;;;;;;5130607;27;20046;-79
2022/01/21 09:21:21;;;;;;;8.82;2.80;;;2.80;99.90;;;;;;5131538;27;20043;-77
2022/01/21 09:23:49;;;;;;;10.85;2.88;;;2.90;99.90;;;;;;5131673;27;20046;-80
2022/01/21 09:26:17;;;;;;;8.20;3.03;;;3.00;99.90;;;;;;5131619;27;20079;-79
2022/01/21 09:28:44;;;;;;;9.50;2.42;;;3.10;99.90;;;;;;5131005;27;20040;-76
2022/01/21 09:31:10;;;;;;;8.80;2.22;;;3.10;99.90;;;;;;5131864;27;20468;-79
2022/01/21 09:33:37;;;;;;;7.63;2.40;;;3.10;99.90;;;;;;5130483;27;20043;-75
2022/01/21 09:36:03;;;;;;;8.48;2.58;;;3.10;99.90;;;;;;5130986;27;20488;-75
2022/01/21 09:38:29;;;;;;;6.63;2.40;;;3.20;99.90;;;;;;5131443;27;20035;-79
2022/01/21 09:40:56;;;;;;;8.60;3.20;;;3.20;99.90;;;;;;5130370;27;20047;-79
2022/01/21 09:43:23;;;;;;;13.05;3.00;;;3.30;99.90;;;;;;5135372;27;20042;-76
2022/01/21 09:45:53;;;;;;;8.95;2.67;;;3.30;99.90;;;;;;5130959;27;20043;-78
2022/01/21 09:48:29;;;;;;;9.30;2.35;;;3.30;99.90;;;;;;5131768;27;20043;-78
2022/01/21 09:50:59;;;;;;;11.10;2.45;;;3.30;99.90;;;;;;5128567;27;20433;-79
2022/01/21 09:53:30;;;;;;;12.82;2.97;;;3.30;99.90;;;;;;5131697;27;20047;-78
2022/01/21 09:56:05;;;;;;;10.43;2.97;;;3.40;99.90;;;;;;5129175;27;20047;-78
2022/01/21 09:58:31;;;;;;;10.75;2.53;;;3.40;99.90;;;;;;5131567;27;20093;-78
2022/01/21 10:01:00;;;;;;;9.27;2.78;;;3.50;99.90;;;;;;5128589;27;20039;-76
2022/01/21 10:03:27;;;;;;;13.07;3.05;;;3.50;99.90;;;;;;5131022;27;20435;-78
2022/01/21 10:05:55;;;;;;;10.05;3.40;;;3.60;99.90;;;;;;5124075;27;20085;-76
2022/01/21 10:08:23;;;;;;;13.60;3.13;;;3.70;99.90;;;;;;5126982;27;20491;-75
2022/01/21 10:10:48;;;;;;;8.25;2.53;;;3.80;99.90;;;;;;5129559;27;20039;-78
2022/01/21 10:13:16;;;;;;;11.63;3.10;;;3.90;99.90;;;;;;5130642;27;20043;-78
2022/01/21 10:15:42;;;;;;;9.75;3.28;;;4.10;99.90;;;;;;5130719;27;20050;-74
2022/01/21 10:18:13;;;;;;;10.20;2.67;;;4.20;99.90;;;;;;5130508;27;20043;-78
2022/01/21 10:20:59;;;;;;;9.57;2.95;;;4.30;99.90;;;;;;5131499;27;20130;-79
2022/01/21 10:23:26;;;;;;;8.55;2.72;;;4.40;99.90;;;;;;5130195;27;20043;-77
2022/01/21 10:26:08;;;;;;;9.77;2.70;;;4.40;99.90;;;;;;5128575;27;20488;-76
2022/01/21 10:28:36;;;;;;;12.02;3.03;;;4.50;99.90;;;;;;5130254;27;20096;-77
2022/01/21 10:31:09;;;;;;;12.13;3.15;;;4.50;99.90;;;;;;5128620;27;20103;-78
2022/01/21 10:33:40;;;;;;;11.25;2.95;;;4.60;99.90;;;;;;5123682;27;20043;-78
2022/01/21 10:36:09;;;;;;;8.27;2.90;;;4.70;99.90;;;;;;5129262;27;20062;-78
2022/01/21 10:38:42;;;;;;;11.98;3.10;;;4.60;99.90;;;;;;5130876;27;20047;-78
2022/01/21 10:41:16;;;;;;;11.60;3.20;;;4.60;99.90;;;;;;5123689;27;20043;-76
2022/01/21 10:43:43;;;;;;;9.13;2.70;;;4.70;99.90;;;;;;5114797;28;20059;-76
2022/01/21 10:46:15;;;;;;;11.00;3.33;;;4.70;99.90;;;;;;5129535;27;20043;-75
2022/01/21 10:49:02;;;;;;;8.50;2.72;;;4.70;99.90;;;;;;5126280;27;20089;-78
2022/01/21 10:51:31;;;;;;;9.57;2.58;;;4.80;99.90;;;;;;5130401;27;20095;-77
2022/01/21 10:54:10;;;;;;;9.85;2.20;;;4.90;99.90;;;;;;5129100;27;20392;-75
2022/01/21 10:56:35;;;;;;;8.55;2.40;;;5.00;99.90;;;;;;5130035;27;20054;-78
2022/01/21 10:59:01;;;;;;;10.10;2.25;;;5.10;99.90;;;;;;5129462;27;20047;-75
2022/01/21 11:01:30;;;;;;;6.75;2.13;;;5.10;99.90;;;;;;5129601;28;20047;-77
2022/01/21 11:03:59;;;;;;;8.93;2.42;;;5.10;99.90;;;;;;5129914;27;20055;-77
2022/01/21 11:06:29;;;;;;;9.98;2.25;;;5.10;99.90;;;;;;5129713;27;20055;-77
2022/01/21 11:09:15;;;;;;;9.07;2.60;;;5.10;99.90;;;;;;5125913;28;20050;-76
2022/01/21 11:11:40;;;;;;;8.20;2.30;;;5.10;99.90;;;;;;5129303;27;20050;-77
2022/01/21 11:14:15;;;;;;;5.50;1.95;;;5.00;99.90;;;;;;5128024;28;20379;-76
2022/01/21 11:16:44;;;;;;;8.73;2.30;;;5.10;99.90;;;;;;5126065;28;20043;-78
2022/01/21 11:19:15;;;;;;;10.27;2.42;;;5.20;99.90;;;;;;5129651;28;20062;-77
2022/01/21 11:21:44;;;;;;;9.77;3.13;;;5.20;99.90;;;;;;5129768;28;20043;-77
2022/01/21 11:24:12;;;;;;;9.38;2.45;;;5.30;99.90;;;;;;5129315;28;20074;-77
2022/01/21 11:26:38;;;;;;;8.20;2.30;;;5.30;99.90;;;;;;5126293;28;20119;-77
2022/01/21 11:29:05;;;;;;;11.20;2.70;;;5.40;99.90;;;;;;5132080;28;20071;-78
2022/01/21 11:31:32;;;;;;;9.45;2.90;;;5.50;99.90;;;;;;5132691;27;20070;-78
2022/01/21 11:33:57;;;;;;;8.35;2.33;;;5.40;99.90;;;;;;5132333;27;20139;-77
2022/01/21 11:36:25;;;;;;;9.57;2.50;;;5.50;99.90;;;;;;5133565;27;20093;-78
2022/01/21 11:38:55;;;;;;;12.30;2.75;;;5.50;99.90;;;;;;5132238;27;20107;-77
2022/01/21 11:41:24;;;;;;;12.68;3.75;;;5.60;99.90;;;;;;5132397;28;20035;-77
2022/01/21 11:43:53;;;;;;;9.80;2.60;;;5.60;99.90;;;;;;5132710;27;20050;-72
2022/01/21 11:49:04;;;;;;;10.65;2.90;;;5.60;99.90;;;;;;5132919;27;20134;-75
2022/01/21 11:51:34;;;;;;;10.85;3.08;;;5.70;99.90;;;;;;5133355;27;20138;-76
2022/01/21 11:54:03;;;;;;;11.60;3.13;;;5.70;99.90;;;;;;5132401;27;20502;-76
2022/01/21 11:56:47;;;;;;;10.30;2.42;;;5.70;99.90;;;;;;5133077;27;20080;-75
2022/01/21 11:59:19;;;;;;;8.68;2.55;;;5.70;99.90;;;;;;5132536;28;20120;-75
2022/01/21 12:01:48;;;;;;;6.93;2.53;;;5.70;99.90;;;;;;5132995;27;20047;-75
2022/01/21 12:04:35;;;;;;;10.40;2.72;;;5.70;99.90;;;;;;5132399;27;20075;-75
2022/01/21 12:07:01;;;;;;;11.27;2.90;;;5.80;99.90;;;;;;5132328;28;20054;-75
2022/01/21 12:09:56;;;;;;;12.00;3.35;;;5.80;99.90;;;;;;5133818;27;20051;-75
2022/01/21 12:12:49;;;;;;;17.42;4.18;;;5.90;99.90;;;;;;5125711;27;20039;-75
2022/01/21 12:21:04;;;;;;;13.43;4.72;;;5.90;99.90;;;;;;5118553;27;20063;-72
2022/01/21 12:23:41;;;;;;;15.32;5.03;;;6.00;99.90;;;;;;5140491;27;20043;-75
2022/01/21 12:26:16;;;;;;;16.05;4.07;;;6.00;99.90;;;;;;5146901;27;20038;-75
2022/01/21 12:28:46;;;;;;;14.95;4.07;;;6.10;99.90;;;;;;5146092;27;20043;-76
2022/01/21 12:31:14;;;;;;;13.50;3.95;;;6.10;99.90;;;;;;5136012;27;20077;-76
2022/01/21 12:36:25;;;;;;;10.50;3.45;;;6.10;99.90;;;;;;5136054;27;20099;-75
2022/01/21 12:41:17;;;;;;;14.00;3.65;;;6.20;99.90;;;;;;5149473;27;20078;-75
2022/01/21 12:43:52;;;;;;;11.82;3.70;;;6.20;99.90;;;;;;5155848;27;20054;-75
2022/01/21 12:46:24;;;;;;;11.25;3.38;;;6.20;99.90;;;;;;5156006;27;20046;-76
2022/01/21 12:48:51;;;;;;;12.50;3.30;;;6.30;99.90;;;;;;5156651;27;20083;-75
2022/01/21 12:56:54;;;;;;;8.80;3.20;;;6.40;99.90;;;;;;5156608;27;20123;-75
2022/01/21 12:59:25;;;;;;;10.85;3.30;;;6.40;99.90;;;;;;5155804;27;20534;-75
2022/01/21 13:01:52;;;;;;;10.48;3.30;;;6.40;99.90;;;;;;5156232;27;20528;-75
2022/01/21 13:04:50;;;;;;;12.82;2.92;;;6.50;99.90;;;;;;5152995;27;20038;-75
2022/01/21 13:07:40;;;;;;;8.63;2.70;;;6.50;99.90;;;;;;5134986;27;20550;-74
2022/01/21 13:10:20;;;;;;;10.63;2.40;;;6.50;99.90;;;;;;5135209;27;20051;-76
2022/01/21 13:15:54;;;;;;;9.30;2.10;;;6.50;99.90;;;;;;5135741;27;20054;-75
2022/01/21 13:18:32;;;;;;;8.15;1.98;;;6.50;99.90;;;;;;5127566;27;20608;-76
2022/01/21 13:21:04;;;;;;;8.38;1.90;;;6.60;99.90;;;;;;5134429;27;20051;-75
2022/01/21 13:23:43;;;;;;;8.48;2.00;;;6.60;99.90;;;;;;5135798;27;20074;-76
2022/01/21 13:26:11;;;;;;;8.93;2.05;;;6.60;99.90;;;;;;5134635;27;20039;-75
2022/01/21 13:28:56;;;;;;;5.97;2.13;;;6.60;99.90;;;;;;5135498;27;20074;-76
2022/01/21 13:31:22;;;;;;;11.90;2.47;;;6.70;99.90;;;;;;5134595;27;20196;-76
2022/01/21 13:33:49;;;;;;;6.47;1.73;;;6.60;99.90;;;;;;5135155;27;20054;-76
2022/01/21 13:36:35;;;;;;;7.90;2.47;;;6.60;99.90;;;;;;5134359;27;20058;-76
2022/01/21 13:39:11;;;;;;;6.07;1.70;;;6.60;99.90;;;;;;5133903;27;20537;-72
2022/01/21 13:41:57;;;;;;;6.72;2.13;;;6.60;99.90;;;;;;5134775;27;20130;-76
2022/01/21 13:44:38;;;;;;;9.95;2.20;;;6.60;99.90;;;;;;5134326;27;20049;-76
2022/01/21 13:47:07;;;;;;;9.85;2.40;;;6.60;99.90;;;;;;5134378;27;20047;-72
2022/01/21 13:49:33;;;;;;;7.25;2.40;;;6.60;99.90;;;;;;5134312;27;20147;-74
2022/01/21 13:52:03;;;;;;;10.30;2.15;;;6.60;99.90;;;;;;5134744;27;20172;-76
2022/01/21 13:54:36;;;;;;;8.20;1.88;;;6.60;99.90;;;;;;5134510;27;20043;-76
2022/01/21 13:57:05;;;;;;;10.07;2.35;;;6.60;99.90;;;;;;5134490;27;20039;-76
2022/01/21 13:59:32;;;;;;;9.02;2.45;;;6.60;99.90;;;;;;5132840;27;20095;-76
2022/01/21 14:02:04;;;;;;;9.63;2.40;;;6.60;99.90;;;;;;5134490;27;20085;-76
2022/01/21 14:04:30;;;;;;;8.50;2.30;;;6.60;99.90;;;;;;5134188;27;20043;-76
2022/01/21 14:06:55;;;;;;;9.10;2.17;;;6.60;99.90;;;;;;5131634;27;20499;-75